sensor_id;sensor_type;location;lat;lon;timestamp;P1;durP1;ratioP1;P2;durP2;ratioP2
2748;SDS011;1382;52.142;11.618;2023-01-01T00:01:41;18.20;;;13.43;;
2748;SDS011;1382;52.142;11.618;2023-01-01T00:04:10;20.83;;;11.33;;
2748;SDS011;1382;52.142;11.618;2023-01-01T00:06:38;19.73;;;12.50;;
2748;SDS011;1382;52.142;11.618;2023-01-01T00:09:05;13.57;;;9.10;;
2748;SDS011;1382;52.142;11.618;2023-01-01T00:11:32;13.80;;;11.70;;
2748;SDS011;1382;52.142;11.618;2023-01-01T00:14:00;15.27;;;10.90;;
2748;SDS011;1382;52.142;11.618;2023-01-01T00:16:37;14.70;;;9.13;;
2748;SDS011;1382;52.142;11.618;2023-01-01T00:19:04;16.93;;;9.20;;
2748;SDS011;1382;52.142;11.618;2023-01-01T00:21:31;15.90;;;10.67;;
2748;SDS011;1382;52.142;11.618;2023-01-01T00:23:57;15.40;;;9.37;;
2748;SDS011;1382;52.142;11.618;2023-01-01T00:26:24;9.53;;;7.20;;
2748;SDS011;1382;52.142;11.618;2023-01-01T00:29:00;13.77;;;6.67;;
2748;SDS011;1382;52.142;11.618;2023-01-01T00:31:28;12.13;;;6.90;;
2748;SDS011;1382;52.142;11.618;2023-01-01T00:33:56;12.50;;;7.00;;
2748;SDS011;1382;52.142;11.618;2023-01-01T00:36:24;9.87;;;6.57;;
2748;SDS011;1382;52.142;11.618;2023-01-01T00:38:52;11.63;;;5.70;;
2748;SDS011;1382;52.142;11.618;2023-01-01T00:41:20;10.80;;;4.60;;
2748;SDS011;1382;52.142;11.618;2023-01-01T00:43:47;10.70;;;6.20;;
2748;SDS011;1382;52.142;11.618;2023-01-01T00:46:15;11.20;;;6.50;;
2748;SDS011;1382;52.142;11.618;2023-01-01T00:48:42;10.83;;;6.13;;
2748;SDS011;1382;52.142;11.618;2023-01-01T00:51:09;16.70;;;5.67;;
2748;SDS011;1382;52.142;11.618;2023-01-01T00:53:35;10.90;;;5.83;;
2748;SDS011;1382;52.142;11.618;2023-01-01T00:56:03;12.17;;;5.23;;
2748;SDS011;1382;52.142;11.618;2023-01-01T00:58:30;12.40;;;6.43;;
2748;SDS011;1382;52.142;11.618;2023-01-01T01:00:57;9.23;;;7.63;;
2748;SDS011;1382;52.142;11.618;2023-01-01T01:03:25;11.73;;;6.67;;
2748;SDS011;1382;52.142;11.618;2023-01-01T01:05:52;10.10;;;5.00;;
2748;SDS011;1382;52.142;11.618;2023-01-01T01:08:19;13.07;;;7.67;;
2748;SDS011;1382;52.142;11.618;2023-01-01T01:10:53;11.27;;;5.30;;
2748;SDS011;1382;52.142;11.618;2023-01-01T01:13:21;13.40;;;6.43;;
2748;SDS011;1382;52.142;11.618;2023-01-01T01:15:47;11.60;;;6.60;;
2748;SDS011;1382;52.142;11.618;2023-01-01T01:18:21;16.10;;;6.73;;
2748;SDS011;1382;52.142;11.618;2023-01-01T01:20:50;14.17;;;6.70;;
2748;SDS011;1382;52.142;11.618;2023-01-01T01:23:17;10.97;;;6.43;;
2748;SDS011;1382;52.142;11.618;2023-01-01T01:25:44;8.47;;;5.20;;
2748;SDS011;1382;52.142;11.618;2023-01-01T01:28:11;8.03;;;4.73;;
2748;SDS011;1382;52.142;11.618;2023-01-01T01:30:38;10.70;;;4.70;;
2748;SDS011;1382;52.142;11.618;2023-01-01T01:33:05;5.83;;;3.57;;
2748;SDS011;1382;52.142;11.618;2023-01-01T01:35:32;17.20;;;3.80;;
2748;SDS011;1382;52.142;11.618;2023-01-01T01:38:00;7.67;;;3.80;;
2748;SDS011;1382;52.142;11.618;2023-01-01T01:40:27;5.40;;;3.83;;
2748;SDS011;1382;52.142;11.618;2023-01-01T01:42:54;9.37;;;4.20;;
2748;SDS011;1382;52.142;11.618;2023-01-01T01:45:21;8.53;;;4.07;;
2748;SDS011;1382;52.142;11.618;2023-01-01T01:47:56;6.30;;;3.67;;
2748;SDS011;1382;52.142;11.618;2023-01-01T01:50:24;6.87;;;3.97;;
2748;SDS011;1382;52.142;11.618;2023-01-01T01:52:57;11.87;;;3.67;;
2748;SDS011;1382;52.142;11.618;2023-01-01T01:55:30;7.30;;;4.23;;
2748;SDS011;1382;52.142;11.618;2023-01-01T01:58:00;7.00;;;4.10;;
2748;SDS011;1382;52.142;11.618;2023-01-01T02:00:26;7.80;;;4.00;;
2748;SDS011;1382;52.142;11.618;2023-01-01T02:02:54;12.40;;;4.33;;
2748;SDS011;1382;52.142;11.618;2023-01-01T02:05:24;9.43;;;4.53;;
2748;SDS011;1382;52.142;11.618;2023-01-01T02:07:54;10.00;;;3.90;;
2748;SDS011;1382;52.142;11.618;2023-01-01T02:10:23;7.60;;;4.67;;
2748;SDS011;1382;52.142;11.618;2023-01-01T02:12:49;9.50;;;5.00;;
2748;SDS011;1382;52.142;11.618;2023-01-01T02:15:16;8.20;;;3.80;;
2748;SDS011;1382;52.142;11.618;2023-01-01T02:17:46;7.53;;;4.17;;
2748;SDS011;1382;52.142;11.618;2023-01-01T02:20:24;10.17;;;3.47;;
2748;SDS011;1382;52.142;11.618;2023-01-01T02:23:08;12.20;;;4.30;;
2748;SDS011;1382;52.142;11.618;2023-01-01T02:25:54;9.83;;;4.17;;
2748;SDS011;1382;52.142;11.618;2023-01-01T02:28:39;8.00;;;4.10;;
2748;SDS011;1382;52.142;11.618;2023-01-01T02:31:14;7.70;;;4.10;;
2748;SDS011;1382;52.142;11.618;2023-01-01T02:33:48;11.17;;;4.83;;
2748;SDS011;1382;52.142;11.618;2023-01-01T02:36:18;7.10;;;4.20;;
2748;SDS011;1382;52.142;11.618;2023-01-01T02:38:47;10.00;;;4.13;;
2748;SDS011;1382;52.142;11.618;2023-01-01T02:41:20;9.13;;;4.07;;
2748;SDS011;1382;52.142;11.618;2023-01-01T02:43:51;7.90;;;3.47;;
2748;SDS011;1382;52.142;11.618;2023-01-01T02:46:18;8.60;;;4.00;;
2748;SDS011;1382;52.142;11.618;2023-01-01T02:48:44;5.67;;;3.40;;
2748;SDS011;1382;52.142;11.618;2023-01-01T02:51:15;12.10;;;4.87;;
2748;SDS011;1382;52.142;11.618;2023-01-01T02:53:51;7.23;;;4.20;;
2748;SDS011;1382;52.142;11.618;2023-01-01T02:56:26;17.53;;;4.43;;
2748;SDS011;1382;52.142;11.618;2023-01-01T02:59:07;7.73;;;3.10;;
2748;SDS011;1382;52.142;11.618;2023-01-01T03:01:45;9.17;;;3.10;;
2748;SDS011;1382;52.142;11.618;2023-01-01T03:04:19;4.87;;;2.87;;
2748;SDS011;1382;52.142;11.618;2023-01-01T03:06:53;13.13;;;3.80;;
2748;SDS011;1382;52.142;11.618;2023-01-01T03:09:26;9.30;;;3.00;;
2748;SDS011;1382;52.142;11.618;2023-01-01T03:12:01;5.50;;;3.30;;
2748;SDS011;1382;52.142;11.618;2023-01-01T03:14:35;7.53;;;3.00;;
2748;SDS011;1382;52.142;11.618;2023-01-01T03:17:08;5.57;;;2.90;;
2748;SDS011;1382;52.142;11.618;2023-01-01T03:19:43;8.57;;;5.30;;
2748;SDS011;1382;52.142;11.618;2023-01-01T03:22:11;6.10;;;3.60;;
2748;SDS011;1382;52.142;11.618;2023-01-01T03:24:41;7.13;;;3.30;;
2748;SDS011;1382;52.142;11.618;2023-01-01T03:27:12;8.60;;;3.23;;
2748;SDS011;1382;52.142;11.618;2023-01-01T03:29:45;7.60;;;3.90;;
2748;SDS011;1382;52.142;11.618;2023-01-01T03:32:15;7.13;;;3.57;;
2748;SDS011;1382;52.142;11.618;2023-01-01T03:34:46;8.40;;;3.80;;
2748;SDS011;1382;52.142;11.618;2023-01-01T03:37:18;9.47;;;3.83;;
2748;SDS011;1382;52.142;11.618;2023-01-01T03:39:50;9.07;;;3.53;;
2748;SDS011;1382;52.142;11.618;2023-01-01T03:42:20;9.50;;;4.37;;
2748;SDS011;1382;52.142;11.618;2023-01-01T03:44:54;11.07;;;3.93;;
2748;SDS011;1382;52.142;11.618;2023-01-01T03:47:26;8.63;;;3.67;;
2748;SDS011;1382;52.142;11.618;2023-01-01T03:49:53;10.23;;;4.70;;
2748;SDS011;1382;52.142;11.618;2023-01-01T03:52:31;7.50;;;3.97;;
2748;SDS011;1382;52.142;11.618;2023-01-01T03:55:10;8.63;;;4.13;;
2748;SDS011;1382;52.142;11.618;2023-01-01T03:57:42;8.73;;;4.47;;
2748;SDS011;1382;52.142;11.618;2023-01-01T04:00:17;6.00;;;3.07;;
2748;SDS011;1382;52.142;11.618;2023-01-01T04:02:47;5.10;;;3.00;;
2748;SDS011;1382;52.142;11.618;2023-01-01T04:05:18;6.03;;;3.97;;
2748;SDS011;1382;52.142;11.618;2023-01-01T04:07:46;7.13;;;3.87;;
2748;SDS011;1382;52.142;11.618;2023-01-01T04:10:12;11.23;;;4.00;;
2748;SDS011;1382;52.142;11.618;2023-01-01T04:12:40;7.07;;;3.33;;
2748;SDS011;1382;52.142;11.618;2023-01-01T04:15:07;5.33;;;3.00;;
2748;SDS011;1382;52.142;11.618;2023-01-01T04:17:38;8.03;;;3.43;;
2748;SDS011;1382;52.142;11.618;2023-01-01T04:20:05;8.03;;;3.33;;
2748;SDS011;1382;52.142;11.618;2023-01-01T04:22:33;4.77;;;3.20;;
2748;SDS011;1382;52.142;11.618;2023-01-01T04:25:00;6.60;;;2.97;;
2748;SDS011;1382;52.142;11.618;2023-01-01T04:27:27;10.93;;;3.87;;
2748;SDS011;1382;52.142;11.618;2023-01-01T04:29:53;5.63;;;2.90;;
2748;SDS011;1382;52.142;11.618;2023-01-01T04:32:20;3.37;;;2.40;;
2748;SDS011;1382;52.142;11.618;2023-01-01T04:34:48;6.77;;;3.90;;
2748;SDS011;1382;52.142;11.618;2023-01-01T04:37:15;4.30;;;2.93;;
2748;SDS011;1382;52.142;11.618;2023-01-01T04:39:42;8.70;;;3.67;;
2748;SDS011;1382;52.142;11.618;2023-01-01T04:42:09;6.40;;;3.90;;
2748;SDS011;1382;52.142;11.618;2023-01-01T04:44:36;6.77;;;3.10;;
2748;SDS011;1382;52.142;11.618;2023-01-01T04:47:03;7.03;;;3.43;;
2748;SDS011;1382;52.142;11.618;2023-01-01T04:49:32;6.13;;;3.77;;
2748;SDS011;1382;52.142;11.618;2023-01-01T04:52:01;11.47;;;4.00;;
2748;SDS011;1382;52.142;11.618;2023-01-01T04:54:28;15.77;;;3.40;;
2748;SDS011;1382;52.142;11.618;2023-01-01T04:56:55;8.90;;;3.43;;
2748;SDS011;1382;52.142;11.618;2023-01-01T04:59:21;5.93;;;3.60;;
2748;SDS011;1382;52.142;11.618;2023-01-01T05:01:48;7.80;;;3.27;;
2748;SDS011;1382;52.142;11.618;2023-01-01T05:04:15;11.33;;;2.93;;
2748;SDS011;1382;52.142;11.618;2023-01-01T05:06:42;5.20;;;3.00;;
2748;SDS011;1382;52.142;11.618;2023-01-01T05:09:11;8.47;;;3.60;;
2748;SDS011;1382;52.142;11.618;2023-01-01T05:11:37;4.60;;;2.70;;
2748;SDS011;1382;52.142;11.618;2023-01-01T05:14:04;6.43;;;3.63;;
2748;SDS011;1382;52.142;11.618;2023-01-01T05:16:32;5.87;;;3.13;;
2748;SDS011;1382;52.142;11.618;2023-01-01T05:19:01;6.43;;;3.43;;
2748;SDS011;1382;52.142;11.618;2023-01-01T05:21:28;15.20;;;3.60;;
2748;SDS011;1382;52.142;11.618;2023-01-01T05:23:58;7.30;;;3.63;;
2748;SDS011;1382;52.142;11.618;2023-01-01T05:26:28;7.50;;;3.43;;
2748;SDS011;1382;52.142;11.618;2023-01-01T05:28:56;5.53;;;3.37;;
2748;SDS011;1382;52.142;11.618;2023-01-01T05:31:25;8.50;;;3.90;;
2748;SDS011;1382;52.142;11.618;2023-01-01T05:33:53;7.60;;;3.67;;
2748;SDS011;1382;52.142;11.618;2023-01-01T05:36:21;9.67;;;3.83;;
2748;SDS011;1382;52.142;11.618;2023-01-01T05:38:49;8.80;;;3.67;;
2748;SDS011;1382;52.142;11.618;2023-01-01T05:41:17;8.27;;;3.33;;
2748;SDS011;1382;52.142;11.618;2023-01-01T05:43:46;6.53;;;3.30;;
2748;SDS011;1382;52.142;11.618;2023-01-01T05:46:15;7.80;;;3.83;;
2748;SDS011;1382;52.142;11.618;2023-01-01T05:48:44;6.60;;;3.20;;
2748;SDS011;1382;52.142;11.618;2023-01-01T05:51:13;9.90;;;3.13;;
2748;SDS011;1382;52.142;11.618;2023-01-01T05:53:41;5.53;;;3.73;;
2748;SDS011;1382;52.142;11.618;2023-01-01T05:56:08;6.33;;;3.40;;
2748;SDS011;1382;52.142;11.618;2023-01-01T05:58:36;12.47;;;3.60;;
2748;SDS011;1382;52.142;11.618;2023-01-01T06:01:07;7.50;;;3.57;;
2748;SDS011;1382;52.142;11.618;2023-01-01T06:03:36;6.27;;;4.17;;
2748;SDS011;1382;52.142;11.618;2023-01-01T06:06:03;4.80;;;4.10;;
2748;SDS011;1382;52.142;11.618;2023-01-01T06:08:31;5.90;;;3.27;;
2748;SDS011;1382;52.142;11.618;2023-01-01T06:10:58;7.17;;;3.90;;
2748;SDS011;1382;52.142;11.618;2023-01-01T06:13:25;7.50;;;4.30;;
2748;SDS011;1382;52.142;11.618;2023-01-01T06:15:53;6.43;;;3.87;;
2748;SDS011;1382;52.142;11.618;2023-01-01T06:18:21;4.90;;;3.77;;
2748;SDS011;1382;52.142;11.618;2023-01-01T06:20:48;11.33;;;4.37;;
2748;SDS011;1382;52.142;11.618;2023-01-01T06:23:15;6.77;;;4.20;;
2748;SDS011;1382;52.142;11.618;2023-01-01T06:25:42;7.87;;;4.03;;
2748;SDS011;1382;52.142;11.618;2023-01-01T06:28:09;4.50;;;3.33;;
2748;SDS011;1382;52.142;11.618;2023-01-01T06:30:36;15.50;;;3.07;;
2748;SDS011;1382;52.142;11.618;2023-01-01T06:33:03;7.90;;;3.57;;
2748;SDS011;1382;52.142;11.618;2023-01-01T06:35:32;11.80;;;4.73;;
2748;SDS011;1382;52.142;11.618;2023-01-01T06:37:59;8.73;;;3.80;;
2748;SDS011;1382;52.142;11.618;2023-01-01T06:40:26;11.30;;;4.20;;
2748;SDS011;1382;52.142;11.618;2023-01-01T06:42:52;9.60;;;4.20;;
2748;SDS011;1382;52.142;11.618;2023-01-01T06:45:19;7.07;;;4.10;;
2748;SDS011;1382;52.142;11.618;2023-01-01T06:47:46;9.90;;;3.83;;
2748;SDS011;1382;52.142;11.618;2023-01-01T06:50:13;7.83;;;3.70;;
2748;SDS011;1382;52.142;11.618;2023-01-01T06:52:41;8.50;;;4.23;;
2748;SDS011;1382;52.142;11.618;2023-01-01T06:55:08;6.50;;;3.67;;
2748;SDS011;1382;52.142;11.618;2023-01-01T06:57:34;10.13;;;4.67;;
2748;SDS011;1382;52.142;11.618;2023-01-01T07:00:01;6.37;;;4.17;;
2748;SDS011;1382;52.142;11.618;2023-01-01T07:02:29;6.80;;;4.43;;
2748;SDS011;1382;52.142;11.618;2023-01-01T07:04:56;9.10;;;4.80;;
2748;SDS011;1382;52.142;11.618;2023-01-01T07:07:23;15.83;;;5.07;;
2748;SDS011;1382;52.142;11.618;2023-01-01T07:09:51;10.20;;;4.40;;
2748;SDS011;1382;52.142;11.618;2023-01-01T07:12:18;5.80;;;4.37;;
2748;SDS011;1382;52.142;11.618;2023-01-01T07:14:45;9.87;;;4.07;;
2748;SDS011;1382;52.142;11.618;2023-01-01T07:17:12;9.20;;;4.40;;
2748;SDS011;1382;52.142;11.618;2023-01-01T07:19:39;6.10;;;3.60;;
2748;SDS011;1382;52.142;11.618;2023-01-01T07:22:07;5.90;;;4.07;;
2748;SDS011;1382;52.142;11.618;2023-01-01T07:24:35;7.00;;;4.30;;
2748;SDS011;1382;52.142;11.618;2023-01-01T07:27:05;8.73;;;4.63;;
2748;SDS011;1382;52.142;11.618;2023-01-01T07:29:32;6.60;;;4.00;;
2748;SDS011;1382;52.142;11.618;2023-01-01T07:31:59;6.60;;;4.47;;
2748;SDS011;1382;52.142;11.618;2023-01-01T07:34:25;9.57;;;4.57;;
2748;SDS011;1382;52.142;11.618;2023-01-01T07:36:52;5.97;;;3.63;;
2748;SDS011;1382;52.142;11.618;2023-01-01T07:39:19;7.27;;;4.60;;
2748;SDS011;1382;52.142;11.618;2023-01-01T07:41:45;7.97;;;4.00;;
2748;SDS011;1382;52.142;11.618;2023-01-01T07:44:13;7.80;;;4.67;;
2748;SDS011;1382;52.142;11.618;2023-01-01T07:46:40;6.33;;;4.27;;
2748;SDS011;1382;52.142;11.618;2023-01-01T07:49:07;7.00;;;5.20;;
2748;SDS011;1382;52.142;11.618;2023-01-01T07:51:34;8.53;;;5.37;;
2748;SDS011;1382;52.142;11.618;2023-01-01T07:54:01;8.27;;;4.90;;
2748;SDS011;1382;52.142;11.618;2023-01-01T07:56:32;9.33;;;4.73;;
2748;SDS011;1382;52.142;11.618;2023-01-01T07:58:59;9.43;;;5.13;;
2748;SDS011;1382;52.142;11.618;2023-01-01T08:01:28;7.87;;;5.00;;
2748;SDS011;1382;52.142;11.618;2023-01-01T08:03:55;8.50;;;5.27;;
2748;SDS011;1382;52.142;11.618;2023-01-01T08:06:21;11.03;;;5.07;;
2748;SDS011;1382;52.142;11.618;2023-01-01T08:08:48;7.97;;;5.17;;
2748;SDS011;1382;52.142;11.618;2023-01-01T08:11:15;15.10;;;5.70;;
2748;SDS011;1382;52.142;11.618;2023-01-01T08:13:42;8.73;;;4.80;;
2748;SDS011;1382;52.142;11.618;2023-01-01T08:16:09;8.60;;;5.33;;
2748;SDS011;1382;52.142;11.618;2023-01-01T08:18:37;8.33;;;5.13;;
2748;SDS011;1382;52.142;11.618;2023-01-01T08:21:04;6.13;;;4.40;;
2748;SDS011;1382;52.142;11.618;2023-01-01T08:23:31;10.10;;;5.77;;
2748;SDS011;1382;52.142;11.618;2023-01-01T08:25:59;6.63;;;4.73;;
2748;SDS011;1382;52.142;11.618;2023-01-01T08:28:26;7.23;;;5.03;;
2748;SDS011;1382;52.142;11.618;2023-01-01T08:30:54;8.27;;;4.77;;
2748;SDS011;1382;52.142;11.618;2023-01-01T08:33:21;7.93;;;4.83;;
2748;SDS011;1382;52.142;11.618;2023-01-01T08:35:49;7.83;;;4.30;;
2748;SDS011;1382;52.142;11.618;2023-01-01T08:38:20;10.20;;;4.97;;
2748;SDS011;1382;52.142;11.618;2023-01-01T08:40:46;13.73;;;5.40;;
2748;SDS011;1382;52.142;11.618;2023-01-01T08:43:13;8.00;;;5.57;;
2748;SDS011;1382;52.142;11.618;2023-01-01T08:45:46;10.30;;;4.63;;
2748;SDS011;1382;52.142;11.618;2023-01-01T08:48:13;9.47;;;5.50;;
2748;SDS011;1382;52.142;11.618;2023-01-01T08:50:40;6.03;;;4.60;;
2748;SDS011;1382;52.142;11.618;2023-01-01T08:53:08;26.00;;;5.80;;
2748;SDS011;1382;52.142;11.618;2023-01-01T08:55:35;5.97;;;3.77;;
2748;SDS011;1382;52.142;11.618;2023-01-01T08:58:04;10.17;;;4.17;;
2748;SDS011;1382;52.142;11.618;2023-01-01T09:00:31;7.90;;;4.40;;
2748;SDS011;1382;52.142;11.618;2023-01-01T09:02:58;8.80;;;5.00;;
2748;SDS011;1382;52.142;11.618;2023-01-01T09:05:25;8.97;;;4.13;;
2748;SDS011;1382;52.142;11.618;2023-01-01T09:07:52;7.60;;;3.70;;
2748;SDS011;1382;52.142;11.618;2023-01-01T09:10:20;8.57;;;4.13;;
2748;SDS011;1382;52.142;11.618;2023-01-01T09:12:47;7.97;;;4.50;;
2748;SDS011;1382;52.142;11.618;2023-01-01T09:15:14;8.43;;;4.80;;
2748;SDS011;1382;52.142;11.618;2023-01-01T09:17:41;12.43;;;4.50;;
2748;SDS011;1382;52.142;11.618;2023-01-01T09:20:08;10.57;;;5.23;;
2748;SDS011;1382;52.142;11.618;2023-01-01T09:22:36;12.40;;;6.00;;
2748;SDS011;1382;52.142;11.618;2023-01-01T09:25:03;8.40;;;4.50;;
2748;SDS011;1382;52.142;11.618;2023-01-01T09:27:31;6.70;;;4.20;;
2748;SDS011;1382;52.142;11.618;2023-01-01T09:29:58;7.30;;;4.80;;
2748;SDS011;1382;52.142;11.618;2023-01-01T09:32:25;8.20;;;4.60;;
2748;SDS011;1382;52.142;11.618;2023-01-01T09:34:51;12.60;;;4.47;;
2748;SDS011;1382;52.142;11.618;2023-01-01T09:37:18;7.13;;;4.77;;
2748;SDS011;1382;52.142;11.618;2023-01-01T09:39:45;9.00;;;4.37;;
2748;SDS011;1382;52.142;11.618;2023-01-01T09:47:48;5.40;;;3.40;;
2748;SDS011;1382;52.142;11.618;2023-01-01T09:50:20;4.73;;;3.30;;
2748;SDS011;1382;52.142;11.618;2023-01-01T09:52:57;4.87;;;3.03;;
2748;SDS011;1382;52.142;11.618;2023-01-01T09:55:27;4.57;;;3.00;;
2748;SDS011;1382;52.142;11.618;2023-01-01T09:57:57;9.27;;;3.70;;
2748;SDS011;1382;52.142;11.618;2023-01-01T10:00:24;5.10;;;3.30;;
2748;SDS011;1382;52.142;11.618;2023-01-01T10:02:55;5.87;;;3.23;;
2748;SDS011;1382;52.142;11.618;2023-01-01T10:05:43;5.27;;;3.00;;
2748;SDS011;1382;52.142;11.618;2023-01-01T10:08:20;7.10;;;3.20;;
2748;SDS011;1382;52.142;11.618;2023-01-01T10:10:56;7.53;;;2.70;;
2748;SDS011;1382;52.142;11.618;2023-01-01T10:13:37;4.33;;;2.77;;
2748;SDS011;1382;52.142;11.618;2023-01-01T10:16:08;5.77;;;3.40;;
2748;SDS011;1382;52.142;11.618;2023-01-01T10:18:49;4.37;;;3.00;;
2748;SDS011;1382;52.142;11.618;2023-01-01T10:21:21;6.83;;;3.23;;
2748;SDS011;1382;52.142;11.618;2023-01-01T10:23:53;5.50;;;2.80;;
2748;SDS011;1382;52.142;11.618;2023-01-01T10:26:25;2.80;;;2.50;;
2748;SDS011;1382;52.142;11.618;2023-01-01T10:28:57;6.00;;;3.20;;
2748;SDS011;1382;52.142;11.618;2023-01-01T10:31:30;5.97;;;3.20;;
2748;SDS011;1382;52.142;11.618;2023-01-01T10:34:00;5.40;;;2.73;;
2748;SDS011;1382;52.142;11.618;2023-01-01T10:36:37;4.37;;;3.00;;
2748;SDS011;1382;52.142;11.618;2023-01-01T10:39:04;4.10;;;3.17;;
2748;SDS011;1382;52.142;11.618;2023-01-01T10:41:30;5.80;;;3.40;;
2748;SDS011;1382;52.142;11.618;2023-01-01T10:43:58;7.57;;;3.10;;
2748;SDS011;1382;52.142;11.618;2023-01-01T10:46:25;10.63;;;3.93;;
2748;SDS011;1382;52.142;11.618;2023-01-01T10:49:05;4.70;;;3.10;;
2748;SDS011;1382;52.142;11.618;2023-01-01T10:51:33;8.60;;;3.30;;
2748;SDS011;1382;52.142;11.618;2023-01-01T10:54:03;4.10;;;2.83;;
2748;SDS011;1382;52.142;11.618;2023-01-01T10:56:37;5.30;;;3.10;;
2748;SDS011;1382;52.142;11.618;2023-01-01T10:59:07;3.60;;;2.40;;
2748;SDS011;1382;52.142;11.618;2023-01-01T11:02:14;6.63;;;3.40;;
2748;SDS011;1382;52.142;11.618;2023-01-01T11:04:43;3.17;;;2.00;;
2748;SDS011;1382;52.142;11.618;2023-01-01T11:07:13;4.50;;;2.93;;
2748;SDS011;1382;52.142;11.618;2023-01-01T11:09:46;5.43;;;3.00;;
2748;SDS011;1382;52.142;11.618;2023-01-01T11:12:29;5.60;;;3.97;;
2748;SDS011;1382;52.142;11.618;2023-01-01T11:15:21;4.57;;;2.73;;
2748;SDS011;1382;52.142;11.618;2023-01-01T11:17:49;7.67;;;3.10;;
2748;SDS011;1382;52.142;11.618;2023-01-01T11:20:17;4.73;;;2.90;;
2748;SDS011;1382;52.142;11.618;2023-01-01T11:22:46;3.47;;;2.97;;
2748;SDS011;1382;52.142;11.618;2023-01-01T11:25:21;4.60;;;2.40;;
2748;SDS011;1382;52.142;11.618;2023-01-01T11:27:49;3.90;;;3.30;;
2748;SDS011;1382;52.142;11.618;2023-01-01T11:30:22;4.10;;;2.57;;
2748;SDS011;1382;52.142;11.618;2023-01-01T11:32:52;6.57;;;3.13;;
2748;SDS011;1382;52.142;11.618;2023-01-01T11:35:23;5.80;;;2.50;;
2748;SDS011;1382;52.142;11.618;2023-01-01T11:37:52;6.63;;;2.50;;
2748;SDS011;1382;52.142;11.618;2023-01-01T11:40:21;5.07;;;2.60;;
2748;SDS011;1382;52.142;11.618;2023-01-01T11:42:49;6.57;;;3.40;;
2748;SDS011;1382;52.142;11.618;2023-01-01T11:45:25;5.90;;;3.30;;
2748;SDS011;1382;52.142;11.618;2023-01-01T11:48:03;7.33;;;3.53;;
2748;SDS011;1382;52.142;11.618;2023-01-01T11:50:37;3.20;;;2.20;;
2748;SDS011;1382;52.142;11.618;2023-01-01T11:53:24;7.73;;;2.80;;
2748;SDS011;1382;52.142;11.618;2023-01-01T11:55:54;3.50;;;2.40;;
2748;SDS011;1382;52.142;11.618;2023-01-01T11:58:29;7.00;;;2.70;;
2748;SDS011;1382;52.142;11.618;2023-01-01T12:01:05;6.33;;;3.20;;
2748;SDS011;1382;52.142;11.618;2023-01-01T12:03:37;4.40;;;2.67;;
2748;SDS011;1382;52.142;11.618;2023-01-01T12:06:10;5.50;;;2.90;;
2748;SDS011;1382;52.142;11.618;2023-01-01T12:08:45;6.57;;;2.80;;
2748;SDS011;1382;52.142;11.618;2023-01-01T12:11:18;8.63;;;2.93;;
2748;SDS011;1382;52.142;11.618;2023-01-01T12:13:52;7.23;;;2.90;;
2748;SDS011;1382;52.142;11.618;2023-01-01T12:16:38;6.23;;;3.30;;
2748;SDS011;1382;52.142;11.618;2023-01-01T12:19:11;5.93;;;2.73;;
2748;SDS011;1382;52.142;11.618;2023-01-01T12:21:43;5.70;;;2.80;;
2748;SDS011;1382;52.142;11.618;2023-01-01T12:24:18;3.20;;;2.50;;
2748;SDS011;1382;52.142;11.618;2023-01-01T12:26:49;7.27;;;3.30;;
2748;SDS011;1382;52.142;11.618;2023-01-01T12:29:34;7.80;;;2.93;;
2748;SDS011;1382;52.142;11.618;2023-01-01T12:32:15;3.20;;;2.73;;
2748;SDS011;1382;52.142;11.618;2023-01-01T12:34:50;6.00;;;3.80;;
2748;SDS011;1382;52.142;11.618;2023-01-01T12:37:32;3.03;;;2.63;;
2748;SDS011;1382;52.142;11.618;2023-01-01T12:40:27;7.20;;;3.60;;
2748;SDS011;1382;52.142;11.618;2023-01-01T12:43:00;5.17;;;2.23;;
2748;SDS011;1382;52.142;11.618;2023-01-01T12:45:38;3.10;;;2.07;;
2748;SDS011;1382;52.142;11.618;2023-01-01T12:48:23;4.03;;;2.50;;
2748;SDS011;1382;52.142;11.618;2023-01-01T12:51:14;3.93;;;2.33;;
2748;SDS011;1382;52.142;11.618;2023-01-01T12:53:55;6.07;;;2.37;;
2748;SDS011;1382;52.142;11.618;2023-01-01T12:56:38;3.90;;;2.33;;
2748;SDS011;1382;52.142;11.618;2023-01-01T12:59:10;3.20;;;2.63;;
2748;SDS011;1382;52.142;11.618;2023-01-01T13:01:40;5.77;;;2.90;;
2748;SDS011;1382;52.142;11.618;2023-01-01T13:04:11;4.50;;;2.50;;
2748;SDS011;1382;52.142;11.618;2023-01-01T13:06:40;2.70;;;1.87;;
2748;SDS011;1382;52.142;11.618;2023-01-01T13:09:12;3.77;;;1.83;;
2748;SDS011;1382;52.142;11.618;2023-01-01T13:11:42;7.00;;;2.90;;
2748;SDS011;1382;52.142;11.618;2023-01-01T13:14:13;3.90;;;2.27;;
2748;SDS011;1382;52.142;11.618;2023-01-01T13:16:40;5.20;;;2.20;;
2748;SDS011;1382;52.142;11.618;2023-01-01T13:19:23;4.60;;;2.27;;
2748;SDS011;1382;52.142;11.618;2023-01-01T13:21:55;6.30;;;2.60;;
2748;SDS011;1382;52.142;11.618;2023-01-01T13:24:22;3.93;;;2.00;;
2748;SDS011;1382;52.142;11.618;2023-01-01T13:26:51;4.20;;;2.20;;
2748;SDS011;1382;52.142;11.618;2023-01-01T13:29:28;3.23;;;2.10;;
2748;SDS011;1382;52.142;11.618;2023-01-01T13:32:04;5.03;;;2.30;;
2748;SDS011;1382;52.142;11.618;2023-01-01T13:34:37;5.50;;;2.40;;
2748;SDS011;1382;52.142;11.618;2023-01-01T13:37:29;5.23;;;3.20;;
2748;SDS011;1382;52.142;11.618;2023-01-01T13:40:23;9.23;;;2.70;;
2748;SDS011;1382;52.142;11.618;2023-01-01T13:43:03;3.50;;;2.67;;
2748;SDS011;1382;52.142;11.618;2023-01-01T13:45:33;3.73;;;2.40;;
2748;SDS011;1382;52.142;11.618;2023-01-01T13:48:35;2.80;;;2.50;;
2748;SDS011;1382;52.142;11.618;2023-01-01T13:51:44;6.13;;;2.50;;
2748;SDS011;1382;52.142;11.618;2023-01-01T13:54:51;4.53;;;2.17;;
2748;SDS011;1382;52.142;11.618;2023-01-01T13:57:34;6.47;;;2.60;;
2748;SDS011;1382;52.142;11.618;2023-01-01T14:00:15;4.03;;;1.90;;
2748;SDS011;1382;52.142;11.618;2023-01-01T14:02:45;7.60;;;2.47;;
2748;SDS011;1382;52.142;11.618;2023-01-01T14:05:14;6.00;;;2.43;;
2748;SDS011;1382;52.142;11.618;2023-01-01T14:07:45;6.07;;;2.90;;
2748;SDS011;1382;52.142;11.618;2023-01-01T14:10:25;5.00;;;2.30;;
2748;SDS011;1382;52.142;11.618;2023-01-01T14:12:54;3.13;;;2.23;;
2748;SDS011;1382;52.142;11.618;2023-01-01T14:15:24;5.07;;;2.00;;
2748;SDS011;1382;52.142;11.618;2023-01-01T14:17:53;4.27;;;2.43;;
2748;SDS011;1382;52.142;11.618;2023-01-01T14:20:23;4.10;;;2.30;;
2748;SDS011;1382;52.142;11.618;2023-01-01T14:22:58;5.13;;;2.40;;
2748;SDS011;1382;52.142;11.618;2023-01-01T14:25:30;4.67;;;2.37;;
2748;SDS011;1382;52.142;11.618;2023-01-01T14:27:57;4.23;;;2.17;;
2748;SDS011;1382;52.142;11.618;2023-01-01T14:30:24;5.13;;;1.80;;
2748;SDS011;1382;52.142;11.618;2023-01-01T14:32:55;2.90;;;2.60;;
2748;SDS011;1382;52.142;11.618;2023-01-01T14:35:22;10.30;;;3.50;;
2748;SDS011;1382;52.142;11.618;2023-01-01T14:37:49;6.70;;;4.70;;
2748;SDS011;1382;52.142;11.618;2023-01-01T14:40:18;9.20;;;4.20;;
2748;SDS011;1382;52.142;11.618;2023-01-01T14:42:46;7.17;;;3.20;;
2748;SDS011;1382;52.142;11.618;2023-01-01T14:45:15;7.20;;;3.77;;
2748;SDS011;1382;52.142;11.618;2023-01-01T14:47:45;3.57;;;2.70;;
2748;SDS011;1382;52.142;11.618;2023-01-01T14:50:17;12.03;;;3.50;;
2748;SDS011;1382;52.142;11.618;2023-01-01T14:52:48;3.27;;;2.10;;
2748;SDS011;1382;52.142;11.618;2023-01-01T14:55:19;3.83;;;2.50;;
2748;SDS011;1382;52.142;11.618;2023-01-01T14:57:46;5.43;;;2.90;;
2748;SDS011;1382;52.142;11.618;2023-01-01T15:00:21;5.23;;;2.40;;
2748;SDS011;1382;52.142;11.618;2023-01-01T15:02:49;4.60;;;2.90;;
2748;SDS011;1382;52.142;11.618;2023-01-01T15:05:25;6.67;;;3.23;;
2748;SDS011;1382;52.142;11.618;2023-01-01T15:08:01;6.83;;;2.83;;
2748;SDS011;1382;52.142;11.618;2023-01-01T15:10:31;5.80;;;2.40;;
2748;SDS011;1382;52.142;11.618;2023-01-01T15:12:59;9.47;;;2.77;;
2748;SDS011;1382;52.142;11.618;2023-01-01T15:15:33;7.20;;;2.97;;
2748;SDS011;1382;52.142;11.618;2023-01-01T15:18:01;6.47;;;3.23;;
2748;SDS011;1382;52.142;11.618;2023-01-01T15:20:28;3.90;;;2.40;;
2748;SDS011;1382;52.142;11.618;2023-01-01T15:22:55;4.63;;;2.20;;
2748;SDS011;1382;52.142;11.618;2023-01-01T15:25:22;3.07;;;2.37;;